Terminal Aerodrome Forecast
Issued by NWS

Home | Current Version | Previous Version | Text Only | Print | Product List | Glossary On
Versions: 1 2 3 4 5 6 7 8
000
FTUS46 KMTR 282300
TAFSNS
TAF
KSNS 282320Z 2900/2924 30007KT P6SM FEW250
     FM290400 VRB03KT P6SM FEW250
     FM291200 12007KT P6SM SKC=

USA.gov is the U.S. government's official web portal to all federal, state and local government web resources and services.